sensor_id;sensor_type;location;lat;lon;timestamp;pressure;altitude;pressure_sealevel;temperature;humidity
5413;BME280;2729;50.056;8.678;2022-10-13T00:01:31;100814.31;;;10.32;100.00
5413;BME280;2729;50.056;8.678;2022-10-13T00:03:57;100812.47;;;10.39;100.00
5413;BME280;2729;50.056;8.678;2022-10-13T00:06:24;100811.78;;;10.27;100.00
5413;BME280;2729;50.056;8.678;2022-10-13T00:08:50;100810.91;;;10.27;100.00
5413;BME280;2729;50.056;8.678;2022-10-13T00:11:25;100822.38;;;10.15;100.00
5413;BME280;2729;50.056;8.678;2022-10-13T00:13:54;100823.91;;;10.31;100.00
5413;BME280;2729;50.056;8.678;2022-10-13T00:16:21;100828.16;;;10.37;100.00
5413;BME280;2729;50.056;8.678;2022-10-13T00:18:48;100820.28;;;10.43;100.00
5413;BME280;2729;50.056;8.678;2022-10-13T00:21:17;100822.84;;;10.46;100.00
5413;BME280;2729;50.056;8.678;2022-10-13T00:23:45;100821.84;;;10.53;100.00
5413;BME280;2729;50.056;8.678;2022-10-13T00:26:14;100818.22;;;10.62;100.00
5413;BME280;2729;50.056;8.678;2022-10-13T00:28:41;100825.19;;;10.61;100.00
5413;BME280;2729;50.056;8.678;2022-10-13T00:31:19;100825.13;;;10.66;100.00
5413;BME280;2729;50.056;8.678;2022-10-13T00:33:46;100828.59;;;10.67;100.00
5413;BME280;2729;50.056;8.678;2022-10-13T00:36:15;100823.25;;;10.74;100.00
5413;BME280;2729;50.056;8.678;2022-10-13T00:38:41;100826.63;;;10.81;100.00
5413;BME280;2729;50.056;8.678;2022-10-13T00:41:07;100823.16;;;10.79;100.00
5413;BME280;2729;50.056;8.678;2022-10-13T00:43:51;100823.13;;;10.82;100.00
5413;BME280;2729;50.056;8.678;2022-10-13T00:46:19;100825.78;;;10.79;100.00
5413;BME280;2729;50.056;8.678;2022-10-13T00:48:46;100829.28;;;10.78;100.00
5413;BME280;2729;50.056;8.678;2022-10-13T00:51:15;100828.56;;;10.68;100.00
5413;BME280;2729;50.056;8.678;2022-10-13T00:53:43;100827.84;;;10.60;100.00
5413;BME280;2729;50.056;8.678;2022-10-13T00:56:11;100831.44;;;10.53;100.00
5413;BME280;2729;50.056;8.678;2022-10-13T00:58:40;100832.25;;;10.56;100.00
5413;BME280;2729;50.056;8.678;2022-10-13T01:01:06;100817.63;;;10.46;100.00
5413;BME280;2729;50.056;8.678;2022-10-13T01:03:32;100815.34;;;10.19;100.00
5413;BME280;2729;50.056;8.678;2022-10-13T01:06:00;100817.72;;;10.37;100.00
5413;BME280;2729;50.056;8.678;2022-10-13T01:08:28;100810.75;;;10.38;100.00
5413;BME280;2729;50.056;8.678;2022-10-13T01:11:34;100814.28;;;10.35;100.00
5413;BME280;2729;50.056;8.678;2022-10-13T01:14:17;100816.94;;;10.32;100.00
5413;BME280;2729;50.056;8.678;2022-10-13T01:17:02;100810.22;;;10.13;100.00
5413;BME280;2729;50.056;8.678;2022-10-13T01:25:47;100810.91;;;10.27;100.00
5413;BME280;2729;50.056;8.678;2022-10-13T01:31:51;100806.59;;;10.26;100.00
5413;BME280;2729;50.056;8.678;2022-10-13T01:34:49;100810.19;;;10.16;100.00
5413;BME280;2729;50.056;8.678;2022-10-13T01:37:31;100808.31;;;10.27;100.00
5413;BME280;2729;50.056;8.678;2022-10-13T01:45:57;100809.25;;;10.23;100.00
5413;BME280;2729;50.056;8.678;2022-10-13T01:48:27;100815.28;;;10.26;100.00
5413;BME280;2729;50.056;8.678;2022-10-13T01:50:55;100807.44;;;10.26;100.00
5413;BME280;2729;50.056;8.678;2022-10-13T01:53:23;100797.03;;;10.26;100.00
5413;BME280;2729;50.056;8.678;2022-10-13T01:55:57;100790.00;;;10.30;100.00
5413;BME280;2729;50.056;8.678;2022-10-13T01:58:26;100796.09;;;10.29;100.00
5413;BME280;2729;50.056;8.678;2022-10-13T02:01:21;100790.88;;;10.29;100.00
5413;BME280;2729;50.056;8.678;2022-10-13T02:04:11;100797.88;;;10.27;100.00
5413;BME280;2729;50.056;8.678;2022-10-13T02:07:12;100799.59;;;10.28;100.00
5413;BME280;2729;50.056;8.678;2022-10-13T02:10:11;100795.28;;;10.25;100.00
5413;BME280;2729;50.056;8.678;2022-10-13T02:12:45;100787.50;;;10.24;100.00
5413;BME280;2729;50.056;8.678;2022-10-13T02:15:17;100790.94;;;10.26;100.00
5413;BME280;2729;50.056;8.678;2022-10-13T02:17:44;100788.13;;;10.38;100.00
5413;BME280;2729;50.056;8.678;2022-10-13T02:20:10;100793.34;;;10.40;100.00
5413;BME280;2729;50.056;8.678;2022-10-13T02:22:41;100782.03;;;10.42;100.00
5413;BME280;2729;50.056;8.678;2022-10-13T02:25:08;100773.28;;;10.45;100.00
5413;BME280;2729;50.056;8.678;2022-10-13T02:27:34;100776.78;;;10.44;100.00
5413;BME280;2729;50.056;8.678;2022-10-13T02:30:00;100777.16;;;10.16;100.00
5413;BME280;2729;50.056;8.678;2022-10-13T02:32:28;100769.97;;;10.32;100.00
5413;BME280;2729;50.056;8.678;2022-10-13T02:34:54;100761.13;;;10.44;100.00
5413;BME280;2729;50.056;8.678;2022-10-13T02:37:20;100769.69;;;10.52;100.00
5413;BME280;2729;50.056;8.678;2022-10-13T02:39:46;100760.91;;;10.56;100.00
5413;BME280;2729;50.056;8.678;2022-10-13T02:42:12;100765.31;;;10.52;100.00
5413;BME280;2729;50.056;8.678;2022-10-13T02:44:38;100767.88;;;10.55;100.00
5413;BME280;2729;50.056;8.678;2022-10-13T02:47:04;100770.41;;;10.60;100.00
5413;BME280;2729;50.056;8.678;2022-10-13T02:49:30;100766.03;;;10.62;100.00
5413;BME280;2729;50.056;8.678;2022-10-13T02:51:56;100766.16;;;10.54;100.00
5413;BME280;2729;50.056;8.678;2022-10-13T02:54:22;100764.22;;;10.66;100.00
5413;BME280;2729;50.056;8.678;2022-10-13T02:56:48;100763.38;;;10.63;100.00
5413;BME280;2729;50.056;8.678;2022-10-13T02:59:14;100764.22;;;10.66;100.00
5413;BME280;2729;50.056;8.678;2022-10-13T03:01:40;100765.28;;;10.55;100.00
5413;BME280;2729;50.056;8.678;2022-10-13T03:04:07;100766.91;;;10.61;100.00
5413;BME280;2729;50.056;8.678;2022-10-13T03:06:34;100767.00;;;10.56;100.00
5413;BME280;2729;50.056;8.678;2022-10-13T03:09:00;100768.66;;;10.60;100.00
5413;BME280;2729;50.056;8.678;2022-10-13T03:11:26;100765.94;;;10.67;100.00
5413;BME280;2729;50.056;8.678;2022-10-13T03:13:52;100764.94;;;10.75;100.00
5413;BME280;2729;50.056;8.678;2022-10-13T03:16:18;100770.03;;;10.81;100.00
5413;BME280;2729;50.056;8.678;2022-10-13T03:18:44;100770.91;;;10.82;100.00
5413;BME280;2729;50.056;8.678;2022-10-13T03:21:10;100760.41;;;10.85;100.00
5413;BME280;2729;50.056;8.678;2022-10-13T03:23:38;100763.97;;;10.81;100.00
5413;BME280;2729;50.056;8.678;2022-10-13T03:26:04;100764.84;;;10.80;100.00
5413;BME280;2729;50.056;8.678;2022-10-13T03:28:30;100760.31;;;10.89;100.00
5413;BME280;2729;50.056;8.678;2022-10-13T03:31:04;100756.84;;;10.89;100.00
5413;BME280;2729;50.056;8.678;2022-10-13T03:33:30;100760.56;;;10.76;100.00
5413;BME280;2729;50.056;8.678;2022-10-13T03:36:01;100754.19;;;10.92;100.00
5413;BME280;2729;50.056;8.678;2022-10-13T03:38:29;100753.97;;;11.03;100.00
5413;BME280;2729;50.056;8.678;2022-10-13T03:40:55;100753.81;;;11.10;100.00
5413;BME280;2729;50.056;8.678;2022-10-13T03:43:21;100758.34;;;11.02;100.00
5413;BME280;2729;50.056;8.678;2022-10-13T03:45:58;100753.28;;;10.93;100.00
5413;BME280;2729;50.056;8.678;2022-10-13T03:48:25;100753.00;;;11.08;100.00
5413;BME280;2729;50.056;8.678;2022-10-13T03:50:51;100759.81;;;11.15;100.00
5413;BME280;2729;50.056;8.678;2022-10-13T03:53:18;100751.91;;;11.18;100.00
5413;BME280;2729;50.056;8.678;2022-10-13T03:55:52;100761.31;;;11.28;100.00
5413;BME280;2729;50.056;8.678;2022-10-13T03:58:18;100754.22;;;11.34;100.00
5413;BME280;2729;50.056;8.678;2022-10-13T04:00:46;100760.16;;;11.42;100.00
5413;BME280;2729;50.056;8.678;2022-10-13T04:03:12;100767.56;;;11.20;100.00
5413;BME280;2729;50.056;8.678;2022-10-13T04:05:38;100766.34;;;11.38;100.00
5413;BME280;2729;50.056;8.678;2022-10-13T04:08:05;100769.63;;;11.47;100.00
5413;BME280;2729;50.056;8.678;2022-10-13T04:10:31;100771.31;;;11.50;100.00
5413;BME280;2729;50.056;8.678;2022-10-13T04:12:57;100754.72;;;11.52;100.00
5413;BME280;2729;50.056;8.678;2022-10-13T04:15:23;100754.88;;;11.45;100.00
5413;BME280;2729;50.056;8.678;2022-10-13T04:17:49;100747.81;;;11.48;100.00
5413;BME280;2729;50.056;8.678;2022-10-13T04:20:15;100744.38;;;11.46;100.00
5413;BME280;2729;50.056;8.678;2022-10-13T04:22:41;100745.25;;;11.47;100.00
5413;BME280;2729;50.056;8.678;2022-10-13T04:25:07;100751.38;;;11.46;100.00
5413;BME280;2729;50.056;8.678;2022-10-13T04:27:33;100768.25;;;11.30;100.00
5413;BME280;2729;50.056;8.678;2022-10-13T04:30:06;100766.38;;;11.36;100.00
5413;BME280;2729;50.056;8.678;2022-10-13T04:32:32;100767.34;;;11.31;100.00
5413;BME280;2729;50.056;8.678;2022-10-13T04:35:01;100769.84;;;11.37;100.00
5413;BME280;2729;50.056;8.678;2022-10-13T04:37:27;100771.44;;;11.44;100.00
5413;BME280;2729;50.056;8.678;2022-10-13T04:39:53;100774.50;;;11.21;100.00
5413;BME280;2729;50.056;8.678;2022-10-13T04:42:19;100769.63;;;11.47;100.00
5413;BME280;2729;50.056;8.678;2022-10-13T04:44:45;100762.53;;;11.54;100.00
5413;BME280;2729;50.056;8.678;2022-10-13T04:47:13;100761.53;;;11.59;100.00
5413;BME280;2729;50.056;8.678;2022-10-13T04:49:39;100761.50;;;11.61;100.00
5413;BME280;2729;50.056;8.678;2022-10-13T04:52:05;100769.16;;;11.27;100.00
5413;BME280;2729;50.056;8.678;2022-10-13T04:54:31;100757.41;;;11.48;100.00
5413;BME280;2729;50.056;8.678;2022-10-13T04:56:57;100766.09;;;11.50;100.00
5413;BME280;2729;50.056;8.678;2022-10-13T04:59:23;100763.59;;;11.44;100.00
5413;BME280;2729;50.056;8.678;2022-10-13T05:01:49;100754.69;;;11.54;100.00
5413;BME280;2729;50.056;8.678;2022-10-13T05:04:15;100756.22;;;11.63;100.00
5413;BME280;2729;50.056;8.678;2022-10-13T05:06:41;100753.63;;;11.63;100.00
5413;BME280;2729;50.056;8.678;2022-10-13T05:09:13;100746.59;;;11.65;100.00
5413;BME280;2729;50.056;8.678;2022-10-13T05:11:40;100748.34;;;11.64;100.00
5413;BME280;2729;50.056;8.678;2022-10-13T05:14:06;100740.66;;;11.58;100.00
5413;BME280;2729;50.056;8.678;2022-10-13T05:16:33;100741.63;;;11.52;100.00
5413;BME280;2729;50.056;8.678;2022-10-13T05:18:59;100733.63;;;11.60;100.00
5413;BME280;2729;50.056;8.678;2022-10-13T05:21:27;100728.34;;;11.63;100.00
5413;BME280;2729;50.056;8.678;2022-10-13T05:23:54;100725.13;;;11.50;100.00
5413;BME280;2729;50.056;8.678;2022-10-13T05:26:23;100727.56;;;11.58;100.00
5413;BME280;2729;50.056;8.678;2022-10-13T05:28:53;100721.38;;;11.62;100.00
5413;BME280;2729;50.056;8.678;2022-10-13T05:31:21;100717.88;;;11.63;100.00
5413;BME280;2729;50.056;8.678;2022-10-13T05:33:48;100723.38;;;11.51;100.00
5413;BME280;2729;50.056;8.678;2022-10-13T05:36:26;100724.91;;;11.61;100.00
5413;BME280;2729;50.056;8.678;2022-10-13T05:38:54;100722.19;;;11.66;100.00
5413;BME280;2729;50.056;8.678;2022-10-13T05:41:23;100728.50;;;11.55;100.00
5413;BME280;2729;50.056;8.678;2022-10-13T05:43:52;100727.44;;;11.64;100.00
5413;BME280;2729;50.056;8.678;2022-10-13T05:46:18;100718.19;;;11.49;100.00
5413;BME280;2729;50.056;8.678;2022-10-13T05:48:44;100720.50;;;11.63;100.00
5413;BME280;2729;50.056;8.678;2022-10-13T05:51:18;100716.16;;;11.62;100.00
5413;BME280;2729;50.056;8.678;2022-10-13T05:53:54;100709.50;;;11.47;100.00
5413;BME280;2729;50.056;8.678;2022-10-13T05:56:26;100711.81;;;11.61;100.00
5413;BME280;2729;50.056;8.678;2022-10-13T05:58:59;100695.22;;;11.64;100.00
5413;BME280;2729;50.056;8.678;2022-10-13T06:01:30;100692.56;;;11.65;100.00
5413;BME280;2729;50.056;8.678;2022-10-13T06:04:04;100694.41;;;11.60;100.00
5413;BME280;2729;50.056;8.678;2022-10-13T06:06:31;100690.00;;;11.62;100.00
5413;BME280;2729;50.056;8.678;2022-10-13T06:08:59;100696.09;;;11.63;100.00
5413;BME280;2729;50.056;8.678;2022-10-13T06:11:26;100690.22;;;11.53;100.00
5413;BME280;2729;50.056;8.678;2022-10-13T06:13:52;100686.09;;;11.43;100.00
5413;BME280;2729;50.056;8.678;2022-10-13T06:16:17;100688.63;;;11.46;100.00
5413;BME280;2729;50.056;8.678;2022-10-13T06:18:43;100695.94;;;11.30;100.00
5413;BME280;2729;50.056;8.678;2022-10-13T06:21:09;100692.38;;;11.34;100.00
5413;BME280;2729;50.056;8.678;2022-10-13T06:23:35;100690.72;;;11.30;100.00
5413;BME280;2729;50.056;8.678;2022-10-13T06:26:01;100700.44;;;11.23;100.00
5413;BME280;2729;50.056;8.678;2022-10-13T06:28:28;100709.16;;;11.22;100.00
5413;BME280;2729;50.056;8.678;2022-10-13T06:30:54;100709.00;;;11.30;100.00
5413;BME280;2729;50.056;8.678;2022-10-13T06:33:23;100717.72;;;11.31;100.00
5413;BME280;2729;50.056;8.678;2022-10-13T06:35:50;100722.88;;;11.34;100.00
5413;BME280;2729;50.056;8.678;2022-10-13T06:38:16;100726.16;;;11.43;100.00
5413;BME280;2729;50.056;8.678;2022-10-13T06:40:47;100715.41;;;11.57;100.00
5413;BME280;2729;50.056;8.678;2022-10-13T06:43:13;100721.41;;;11.60;100.00
5413;BME280;2729;50.056;8.678;2022-10-13T06:45:41;100722.38;;;11.56;100.00
5413;BME280;2729;50.056;8.678;2022-10-13T06:48:08;100719.75;;;11.56;100.00
5413;BME280;2729;50.056;8.678;2022-10-13T06:50:34;100721.41;;;11.60;100.00
5413;BME280;2729;50.056;8.678;2022-10-13T06:53:00;100714.28;;;11.69;100.00
5413;BME280;2729;50.056;8.678;2022-10-13T06:55:26;100717.47;;;11.83;100.00
5413;BME280;2729;50.056;8.678;2022-10-13T06:57:52;100727.91;;;11.83;100.00
5413;BME280;2729;50.056;8.678;2022-10-13T07:00:18;100725.22;;;11.87;100.00
5413;BME280;2729;50.056;8.678;2022-10-13T07:02:48;100723.47;;;11.86;100.00
5413;BME280;2729;50.056;8.678;2022-10-13T07:05:14;100727.09;;;11.81;100.00
5413;BME280;2729;50.056;8.678;2022-10-13T07:07:40;100719.84;;;11.94;100.00
5413;BME280;2729;50.056;8.678;2022-10-13T07:10:07;100728.22;;;12.08;100.00
5413;BME280;2729;50.056;8.678;2022-10-13T07:12:33;100727.53;;;12.00;100.00
5413;BME280;2729;50.056;8.678;2022-10-13T07:14:59;100725.00;;;11.97;100.00
5413;BME280;2729;50.056;8.678;2022-10-13T07:17:24;100728.66;;;11.89;100.00
5413;BME280;2729;50.056;8.678;2022-10-13T07:19:50;100725.53;;;12.11;100.00
5413;BME280;2729;50.056;8.678;2022-10-13T07:22:17;100724.69;;;12.09;100.00
5413;BME280;2729;50.056;8.678;2022-10-13T07:24:43;100722.56;;;12.24;100.00
5413;BME280;2729;50.056;8.678;2022-10-13T07:27:09;100724.06;;;12.35;100.00
5413;BME280;2729;50.056;8.678;2022-10-13T07:29:35;100720.50;;;12.37;100.00
5413;BME280;2729;50.056;8.678;2022-10-13T07:32:02;100714.16;;;12.47;100.00
5413;BME280;2729;50.056;8.678;2022-10-13T07:34:28;100704.13;;;12.63;100.00
5413;BME280;2729;50.056;8.678;2022-10-13T07:36:55;100702.22;;;12.70;100.00
5413;BME280;2729;50.056;8.678;2022-10-13T07:39:21;100702.25;;;12.68;100.00
5413;BME280;2729;50.056;8.678;2022-10-13T07:41:47;100707.06;;;12.83;100.00
5413;BME280;2729;50.056;8.678;2022-10-13T07:44:13;100708.97;;;12.78;100.00
5413;BME280;2729;50.056;8.678;2022-10-13T07:46:40;100709.84;;;12.45;100.00
5413;BME280;2729;50.056;8.678;2022-10-13T07:49:06;100716.41;;;12.61;100.00
5413;BME280;2729;50.056;8.678;2022-10-13T07:51:32;100716.03;;;12.75;100.00
5413;BME280;2729;50.056;8.678;2022-10-13T07:53:58;100710.56;;;12.84;100.00
5413;BME280;2729;50.056;8.678;2022-10-13T07:56:24;100696.44;;;12.89;100.00
5413;BME280;2729;50.056;8.678;2022-10-13T07:58:50;100700.03;;;12.85;100.00
5413;BME280;2729;50.056;8.678;2022-10-13T08:01:16;100714.16;;;12.80;100.00
5413;BME280;2729;50.056;8.678;2022-10-13T08:03:43;100713.66;;;12.66;100.00
5413;BME280;2729;50.056;8.678;2022-10-13T08:06:13;100706.41;;;12.75;100.00
5413;BME280;2729;50.056;8.678;2022-10-13T08:08:39;100711.38;;;12.86;100.00
5413;BME280;2729;50.056;8.678;2022-10-13T08:11:08;100703.16;;;12.98;100.00
5413;BME280;2729;50.056;8.678;2022-10-13T08:13:35;100707.50;;;13.01;100.00
5413;BME280;2729;50.056;8.678;2022-10-13T08:16:15;100710.94;;;13.03;100.00
5413;BME280;2729;50.056;8.678;2022-10-13T08:18:42;100715.16;;;13.08;100.00
5413;BME280;2729;50.056;8.678;2022-10-13T08:21:11;100704.03;;;13.00;100.00
5413;BME280;2729;50.056;8.678;2022-10-13T08:23:37;100708.28;;;13.04;100.00
5413;BME280;2729;50.056;8.678;2022-10-13T08:26:04;100704.31;;;13.22;100.00
5413;BME280;2729;50.056;8.678;2022-10-13T08:28:31;100713.44;;;13.07;100.00
5413;BME280;2729;50.056;8.678;2022-10-13T08:30:57;100714.97;;;13.14;100.00
5413;BME280;2729;50.056;8.678;2022-10-13T08:33:24;100711.31;;;13.22;100.00
5413;BME280;2729;50.056;8.678;2022-10-13T08:35:51;100709.00;;;13.40;100.00
5413;BME280;2729;50.056;8.678;2022-10-13T08:38:18;100707.88;;;13.49;100.00
5413;BME280;2729;50.056;8.678;2022-10-13T08:40:48;100707.75;;;13.54;100.00
5413;BME280;2729;50.056;8.678;2022-10-13T08:43:18;100710.19;;;13.60;100.00
5413;BME280;2729;50.056;8.678;2022-10-13T08:45:45;100711.00;;;13.62;100.00
5413;BME280;2729;50.056;8.678;2022-10-13T08:48:26;100703.41;;;13.52;100.00
5413;BME280;2729;50.056;8.678;2022-10-13T08:50:57;100692.59;;;13.63;100.00
5413;BME280;2729;50.056;8.678;2022-10-13T08:53:30;100686.06;;;13.76;100.00
5413;BME280;2729;50.056;8.678;2022-10-13T08:56:09;100682.31;;;13.83;100.00
5413;BME280;2729;50.056;8.678;2022-10-13T08:58:38;100684.66;;;13.93;100.00
5413;BME280;2729;50.056;8.678;2022-10-13T09:01:32;100685.94;;;13.79;100.00
5413;BME280;2729;50.056;8.678;2022-10-13T09:04:21;100700.13;;;13.74;100.00
5413;BME280;2729;50.056;8.678;2022-10-13T09:09:35;100706.31;;;13.71;100.00
5413;BME280;2729;50.056;8.678;2022-10-13T09:12:02;100706.78;;;13.56;100.00
5413;BME280;2729;50.056;8.678;2022-10-13T09:14:33;100709.00;;;13.70;100.00
5413;BME280;2729;50.056;8.678;2022-10-13T09:17:22;100706.31;;;13.71;100.00
5413;BME280;2729;50.056;8.678;2022-10-13T09:22:43;100704.13;;;13.86;100.00
5413;BME280;2729;50.056;8.678;2022-10-13T09:25:19;100706.28;;;13.73;100.00
5413;BME280;2729;50.056;8.678;2022-10-13T09:27:55;100707.66;;;13.57;100.00
5413;BME280;2729;50.056;8.678;2022-10-13T09:30:29;100708.78;;;13.48;100.00
5413;BME280;2729;50.056;8.678;2022-10-13T09:40:35;100706.69;;;13.59;100.00
5413;BME280;2729;50.056;8.678;2022-10-13T09:43:05;100707.31;;;13.67;100.00
5413;BME280;2729;50.056;8.678;2022-10-13T09:45:42;100707.22;;;13.70;100.00
5413;BME280;2729;50.056;8.678;2022-10-13T09:48:17;100700.13;;;13.74;100.00
5413;BME280;2729;50.056;8.678;2022-10-13T09:50:49;100703.38;;;13.82;100.00
5413;BME280;2729;50.056;8.678;2022-10-13T09:53:24;100709.84;;;13.70;100.00
5413;BME280;2729;50.056;8.678;2022-10-13T09:58:34;100697.53;;;13.72;100.00
5413;BME280;2729;50.056;8.678;2022-10-13T10:01:02;100686.72;;;13.83;100.00
5413;BME280;2729;50.056;8.678;2022-10-13T10:03:34;100695.44;;;13.83;100.00
5413;BME280;2729;50.056;8.678;2022-10-13T10:06:06;100692.78;;;13.85;100.00
5413;BME280;2729;50.056;8.678;2022-10-13T10:08:39;100692.09;;;13.78;100.00
5413;BME280;2729;50.056;8.678;2022-10-13T10:11:16;100697.88;;;13.62;100.00
5413;BME280;2729;50.056;8.678;2022-10-13T10:13:43;100694.28;;;13.92;100.00
5413;BME280;2729;50.056;8.678;2022-10-13T10:18:51;100705.28;;;13.77;100.00
5413;BME280;2729;50.056;8.678;2022-10-13T10:21:37;100701.59;;;13.82;100.00
5413;BME280;2729;50.056;8.678;2022-10-13T10:24:24;100707.47;;;13.91;100.00
5413;BME280;2729;50.056;8.678;2022-10-13T10:27:10;100698.59;;;13.95;100.00
5413;BME280;2729;50.056;8.678;2022-10-13T10:29:52;100698.44;;;13.99;100.00
5413;BME280;2729;50.056;8.678;2022-10-13T10:32:39;100695.34;;;13.87;100.00
5413;BME280;2729;50.056;8.678;2022-10-13T10:35:33;100680.63;;;14.09;100.00
5413;BME280;2729;50.056;8.678;2022-10-13T10:38:17;100677.53;;;14.23;100.00
5413;BME280;2729;50.056;8.678;2022-10-13T10:46:24;100663.06;;;14.62;100.00
5413;BME280;2729;50.056;8.678;2022-10-13T10:48:53;100665.88;;;14.58;100.00
5413;BME280;2729;50.056;8.678;2022-10-13T10:51:28;100669.59;;;14.75;100.00
5413;BME280;2729;50.056;8.678;2022-10-13T10:54:05;100657.56;;;14.93;100.00
5413;BME280;2729;50.056;8.678;2022-10-13T10:56:38;100649.69;;;14.93;100.00
5413;BME280;2729;50.056;8.678;2022-10-13T11:01:55;100633.75;;;15.43;100.00
5413;BME280;2729;50.056;8.678;2022-10-13T11:04:46;100628.88;;;15.56;100.00
5413;BME280;2729;50.056;8.678;2022-10-13T11:15:08;100601.34;;;16.08;100.00
5413;BME280;2729;50.056;8.678;2022-10-13T11:17:36;100590.34;;;15.98;100.00
5413;BME280;2729;50.056;8.678;2022-10-13T11:25:45;100599.06;;;15.79;100.00
5413;BME280;2729;50.056;8.678;2022-10-13T11:39:01;100577.56;;;16.10;100.00
5413;BME280;2729;50.056;8.678;2022-10-13T11:41:35;100568.53;;;16.35;100.00
5413;BME280;2729;50.056;8.678;2022-10-13T11:44:24;100561.56;;;16.34;100.00
5413;BME280;2729;50.056;8.678;2022-10-13T11:47:06;100566.88;;;16.53;100.00
5413;BME280;2729;50.056;8.678;2022-10-13T11:52:47;100544.59;;;16.21;100.00
5413;BME280;2729;50.056;8.678;2022-10-13T11:55:20;100542.50;;;16.68;100.00
5413;BME280;2729;50.056;8.678;2022-10-13T11:57:50;100536.00;;;16.94;100.00
5413;BME280;2729;50.056;8.678;2022-10-13T12:00:17;100535.44;;;17.07;100.00
5413;BME280;2729;50.056;8.678;2022-10-13T12:02:49;100540.56;;;16.91;100.00
5413;BME280;2729;50.056;8.678;2022-10-13T12:05:28;100546.06;;;16.86;100.00
5413;BME280;2729;50.056;8.678;2022-10-13T12:07:57;100536.75;;;16.59;100.00
5413;BME280;2729;50.056;8.678;2022-10-13T12:10:29;100545.00;;;16.51;100.00
5413;BME280;2729;50.056;8.678;2022-10-13T12:12:55;100540.53;;;16.53;100.00
5413;BME280;2729;50.056;8.678;2022-10-13T12:15:33;100544.00;;;16.74;100.00
5413;BME280;2729;50.056;8.678;2022-10-13T12:18:00;100544.84;;;16.75;100.00
5413;BME280;2729;50.056;8.678;2022-10-13T12:20:30;100541.16;;;16.79;100.00
5413;BME280;2729;50.056;8.678;2022-10-13T12:22:57;100538.94;;;16.88;100.00
5413;BME280;2729;50.056;8.678;2022-10-13T12:25:25;100542.38;;;16.51;100.00
5413;BME280;2729;50.056;8.678;2022-10-13T12:27:58;100547.78;;;16.48;100.00
5413;BME280;2729;50.056;8.678;2022-10-13T12:30:31;100538.50;;;16.39;100.00
5413;BME280;2729;50.056;8.678;2022-10-13T12:33:01;100541.44;;;16.52;100.00
5413;BME280;2729;50.056;8.678;2022-10-13T12:35:30;100537.50;;;16.42;100.00
5413;BME280;2729;50.056;8.678;2022-10-13T12:37:57;100541.50;;;16.51;100.00
5413;BME280;2729;50.056;8.678;2022-10-13T12:40:26;100535.56;;;16.27;100.00
5413;BME280;2729;50.056;8.678;2022-10-13T12:42:52;100530.94;;;16.32;100.00
5413;BME280;2729;50.056;8.678;2022-10-13T12:45:20;100530.44;;;17.00;100.00
5413;BME280;2729;50.056;8.678;2022-10-13T12:47:50;100526.81;;;16.84;100.00
5413;BME280;2729;50.056;8.678;2022-10-13T12:53:14;100516.22;;;16.67;100.00
5413;BME280;2729;50.056;8.678;2022-10-13T12:55:56;100519.19;;;16.78;100.00
5413;BME280;2729;50.056;8.678;2022-10-13T12:58:33;100518.19;;;16.99;100.00
5413;BME280;2729;50.056;8.678;2022-10-13T13:01:16;100510.72;;;17.26;100.00
5413;BME280;2729;50.056;8.678;2022-10-13T13:03:53;100501.94;;;17.09;100.00
5413;BME280;2729;50.056;8.678;2022-10-13T13:06:25;100511.81;;;17.22;100.00
5413;BME280;2729;50.056;8.678;2022-10-13T13:11:37;100517.63;;;16.74;100.00
5413;BME280;2729;50.056;8.678;2022-10-13T13:17:04;100520.94;;;16.59;100.00
5413;BME280;2729;50.056;8.678;2022-10-13T13:19:31;100506.38;;;16.70;100.00
5413;BME280;2729;50.056;8.678;2022-10-13T13:21:57;100491.97;;;16.96;100.00
5413;BME280;2729;50.056;8.678;2022-10-13T13:24:23;100497.28;;;17.14;100.00
5413;BME280;2729;50.056;8.678;2022-10-13T13:26:49;100494.50;;;17.17;100.00
5413;BME280;2729;50.056;8.678;2022-10-13T13:29:15;100491.88;;;17.34;100.00
5413;BME280;2729;50.056;8.678;2022-10-13T13:31:41;100490.66;;;17.41;100.00
5413;BME280;2729;50.056;8.678;2022-10-13T13:34:09;100496.88;;;17.40;100.00
5413;BME280;2729;50.056;8.678;2022-10-13T13:36:35;100500.16;;;16.90;100.00
5413;BME280;2729;50.056;8.678;2022-10-13T13:39:01;100501.25;;;16.86;100.00
5413;BME280;2729;50.056;8.678;2022-10-13T13:41:27;100502.66;;;16.93;100.00
5413;BME280;2729;50.056;8.678;2022-10-13T13:43:56;100497.94;;;17.00;100.00
5413;BME280;2729;50.056;8.678;2022-10-13T13:46:25;100494.00;;;17.09;100.00
5413;BME280;2729;50.056;8.678;2022-10-13T13:48:52;100472.94;;;17.26;100.00
5413;BME280;2729;50.056;8.678;2022-10-13T13:51:18;100473.28;;;17.01;100.00
5413;BME280;2729;50.056;8.678;2022-10-13T13:53:44;100490.66;;;17.05;100.00
5413;BME280;2729;50.056;8.678;2022-10-13T13:56:18;100492.13;;;16.93;100.00
5413;BME280;2729;50.056;8.678;2022-10-13T13:58:45;100488.41;;;16.79;100.00
5413;BME280;2729;50.056;8.678;2022-10-13T14:01:12;100484.44;;;16.70;100.00
5413;BME280;2729;50.056;8.678;2022-10-13T14:03:38;100482.88;;;16.66;100.00
5413;BME280;2729;50.056;8.678;2022-10-13T14:06:06;100474.50;;;16.94;100.00
5413;BME280;2729;50.056;8.678;2022-10-13T14:08:34;100476.00;;;16.99;100.00
5413;BME280;2729;50.056;8.678;2022-10-13T14:11:06;100460.97;;;17.01;100.00
5413;BME280;2729;50.056;8.678;2022-10-13T14:13:33;100452.59;;;17.11;100.00
5413;BME280;2729;50.056;8.678;2022-10-13T14:16:00;100454.56;;;16.88;100.00
5413;BME280;2729;50.056;8.678;2022-10-13T14:18:27;100451.97;;;17.06;100.00
5413;BME280;2729;50.056;8.678;2022-10-13T14:20:54;100456.47;;;17.03;100.00
5413;BME280;2729;50.056;8.678;2022-10-13T14:23:20;100472.53;;;16.80;100.00
5413;BME280;2729;50.056;8.678;2022-10-13T14:25:46;100478.72;;;16.79;100.00
5413;BME280;2729;50.056;8.678;2022-10-13T14:28:11;100481.00;;;16.87;100.00
5413;BME280;2729;50.056;8.678;2022-10-13T14:30:39;100474.88;;;16.86;100.00
5413;BME280;2729;50.056;8.678;2022-10-13T14:33:05;100476.66;;;16.67;100.00